Time;durP1;ratioP1;P1;durP2;ratioP2;P2;SDS_P1;SDS_P2;PMS_P1;PMS_P2;Temp;Humidity;BMP_temperature;BMP_pressure;BME280_temperature;BME280_humidity;BME280_pressure;Samples;Min_cycle;Max_cycle;Signal;HPM_P1;HPM_P2
2022/04/03 00:01:27;;;;;;;8.68;3.13;;;;;;;6.06;91.42;93874.06;5090885;28;20043;-46
2022/04/03 00:03:54;;;;;;;7.60;2.58;;;;;;;5.83;93.43;93874.03;5093468;28;20040;-48
2022/04/03 00:06:22;;;;;;;3.50;1.67;;;;;;;5.86;93.56;93874.38;5093812;28;20104;-46
2022/04/03 00:08:48;;;;;;;4.38;2.17;;;;;;;5.89;94.06;93879.09;5093507;28;20402;-46
2022/04/03 00:11:16;;;;;;;7.57;3.03;;;;;;;5.87;95.85;93883.69;5095950;28;20066;-47
2022/04/03 00:13:43;;;;;;;3.22;1.80;;;;;;;5.90;96.45;93887.63;5094233;28;20047;-47
2022/04/03 00:16:11;;;;;;;4.45;1.90;;;;;;;5.90;96.84;93880.66;5099301;28;20047;-48
2022/04/03 00:18:38;;;;;;;3.83;1.40;;;;;;;5.88;97.40;93872.34;5096731;28;20792;-48
2022/04/03 00:21:05;;;;;;;3.08;2.03;;;;;;;5.81;97.78;93860.53;5090887;28;20140;-51
2022/04/03 00:23:31;;;;;;;4.95;2.53;;;;;;;5.89;98.50;93858.41;5094312;28;20078;-52
2022/04/03 00:25:58;;;;;;;3.88;1.90;;;;;;;5.83;99.64;93859.31;5095120;28;20044;-50
2022/04/03 00:28:28;;;;;;;9.98;2.58;;;;;;;5.83;99.70;93863.69;5096519;28;20055;-46
2022/04/03 00:30:55;;;;;;;3.55;2.25;;;;;;;5.85;99.43;93877.16;5093812;28;20040;-47
2022/04/03 00:33:23;;;;;;;5.30;1.90;;;;;;;5.83;99.43;93874.81;5096570;28;20036;-53
2022/04/03 00:35:51;;;;;;;2.20;1.45;;;;;;;5.77;100.00;93874.94;5093939;28;20885;-47
2022/04/03 00:38:18;;;;;;;3.92;2.20;;;;;;;5.77;100.00;93864.59;5093644;28;20120;-51
2022/04/03 00:40:47;;;;;;;8.00;2.35;;;;;;;5.79;100.00;93872.91;5094346;28;20051;-50
2022/04/03 00:43:15;;;;;;;5.53;2.40;;;;;;;5.77;100.00;93865.38;5095362;28;20097;-47
2022/04/03 00:45:45;;;;;;;4.05;1.88;;;;;;;5.78;100.00;93856.63;5094957;28;20060;-47
2022/04/03 00:48:12;;;;;;;4.75;2.10;;;;;;;5.82;100.00;93852.56;5092229;28;20043;-46
2022/04/03 00:50:42;;;;;;;5.45;1.95;;;;;;;5.86;99.03;93837.41;5089070;28;20119;-48
2022/04/03 00:53:10;;;;;;;7.32;1.60;;;;;;;5.89;98.07;93837.75;5087799;28;20065;-49
2022/04/03 00:55:41;;;;;;;5.35;2.10;;;;;;;5.94;97.27;93845.59;5090572;28;20044;-48
2022/04/03 00:58:10;;;;;;;3.50;1.85;;;;;;;5.98;97.56;93855.50;5088522;28;20063;-49
2022/04/03 01:00:37;;;;;;;32.65;13.70;;;;;;;5.96;97.17;93858.34;5092892;28;20066;-46
2022/04/03 01:03:04;;;;;;;9.02;4.30;;;;;;;6.02;97.98;93859.22;5094566;28;20086;-48
2022/04/03 01:05:30;;;;;;;10.10;3.92;;;;;;;6.04;98.48;93862.38;5089506;28;20116;-50
2022/04/03 01:07:57;;;;;;;7.00;4.25;;;;;;;5.97;99.06;93869.47;5092945;28;20047;-47
2022/04/03 01:10:24;;;;;;;6.18;2.42;;;;;;;6.02;98.96;93861.81;5090846;28;20040;-48
2022/04/03 01:12:52;;;;;;;8.40;2.75;;;;;;;6.05;98.89;93845.84;5091595;28;20059;-47
2022/04/03 01:15:19;;;;;;;23.98;8.27;;;;;;;6.09;99.85;93849.56;5089428;28;20093;-47
2022/04/03 01:17:46;;;;;;;9.82;5.47;;;;;;;6.04;100.00;93842.47;5092413;28;20424;-52
2022/04/03 01:20:13;;;;;;;16.38;6.63;;;;;;;6.03;100.00;93833.16;5092632;28;20048;-48
2022/04/03 01:22:40;;;;;;;9.85;4.53;;;;;;;6.01;100.00;93829.22;5089999;28;20050;-48
2022/04/03 01:25:10;;;;;;;5.50;2.38;;;;;;;6.00;99.62;93838.00;5091153;28;20043;-52
2022/04/03 01:27:37;;;;;;;7.18;3.95;;;;;;;5.99;100.00;93841.59;5093115;28;20047;-47
2022/04/03 01:30:05;;;;;;;15.68;3.80;;;;;;;5.98;99.34;93850.34;5093131;28;20059;-48
2022/04/03 01:32:33;;;;;;;8.85;3.85;;;;;;;6.00;98.48;93845.75;5093395;28;20443;-50
2022/04/03 01:34:59;;;;;;;6.38;3.15;;;;;;;5.93;98.89;93851.78;5091947;28;21707;-47
2022/04/03 01:37:26;;;;;;;4.70;2.42;;;;;;;5.91;99.57;93843.47;5093948;28;20051;-50
2022/04/03 01:39:53;;;;;;;3.70;2.10;;;;;;;5.91;99.64;93846.06;5093816;28;20040;-47
2022/04/03 01:42:20;;;;;;;17.23;4.15;;;;;;;5.85;98.82;93839.22;5092770;28;20043;-46
2022/04/03 01:44:47;;;;;;;145.35;27.70;;;;;;;5.83;99.26;93846.38;5092233;28;20432;-48
2022/04/03 01:47:14;;;;;;;31.65;10.13;;;;;;;5.89;99.21;93863.59;5091358;28;20040;-48
2022/04/03 01:49:41;;;;;;;14.68;5.60;;;;;;;5.90;99.11;93875.47;5091282;28;20112;-50
2022/04/03 01:52:08;;;;;;;6.00;3.05;;;;;;;5.91;99.48;93866.72;5087867;28;20502;-46
2022/04/03 01:54:34;;;;;;;5.57;2.65;;;;;;;5.91;99.74;93866.72;5090292;28;20063;-47
2022/04/03 01:57:01;;;;;;;6.70;3.05;;;;;;;5.92;100.00;93868.31;5091015;28;20048;-51
2022/04/03 01:59:28;;;;;;;9.02;3.88;;;;;;;5.92;100.00;93857.97;5091809;28;20465;-48
2022/04/03 02:01:55;;;;;;;5.95;2.95;;;;;;;5.92;100.00;93850.22;5090538;28;20421;-47
2022/04/03 02:04:22;;;;;;;9.52;2.80;;;;;;;6.02;100.00;93859.22;5095293;28;20028;-47
2022/04/03 02:06:51;;;;;;;6.15;3.00;;;;;;;5.94;100.00;93855.94;5089959;28;20056;-47
2022/04/03 02:09:18;;;;;;;8.48;2.40;;;;;;;5.92;100.00;93857.16;5096778;28;20516;-51
2022/04/03 02:11:45;;;;;;;4.43;2.40;;;;;;;5.93;100.00;93849.19;5089786;28;20471;-51
2022/04/03 02:14:12;;;;;;;7.10;4.15;;;;;;;5.91;100.00;93851.22;5090974;28;20113;-49
2022/04/03 02:16:39;;;;;;;9.45;3.72;;;;;;;5.79;100.00;93847.84;5089114;28;20059;-46
2022/04/03 02:19:06;;;;;;;11.85;3.03;;;;;;;5.52;100.00;93853.44;5091251;28;20127;-46
2022/04/03 02:21:32;;;;;;;6.38;2.63;;;;;;;5.28;100.00;93857.78;5091750;28;20067;-45
2022/04/03 02:23:59;;;;;;;5.30;2.28;;;;;;;5.27;100.00;93860.59;5096991;28;20546;-46
2022/04/03 02:26:26;;;;;;;3.72;2.22;;;;;;;5.25;100.00;93854.88;5096283;28;20047;-49
2022/04/03 02:28:53;;;;;;;3.80;2.47;;;;;;;5.19;100.00;93848.03;5073329;28;20109;-46
2022/04/03 02:31:19;;;;;;;6.03;3.47;;;;;;;5.17;100.00;93854.19;5090108;28;20060;-49
2022/04/03 02:33:47;;;;;;;5.38;3.22;;;;;;;5.11;100.00;93862.81;5089387;28;20066;-47
2022/04/03 02:36:13;;;;;;;8.27;4.50;;;;;;;5.04;100.00;93862.13;5090568;28;20035;-53
2022/04/03 02:38:40;;;;;;;8.02;2.80;;;;;;;5.01;100.00;93862.56;5092339;28;20043;-52
2022/04/03 02:41:07;;;;;;;3.22;2.20;;;;;;;4.96;100.00;93865.00;5089719;28;21990;-51
2022/04/03 02:43:34;;;;;;;7.10;2.85;;;;;;;4.93;100.00;93865.44;5092281;28;20528;-52
2022/04/03 02:46:01;;;;;;;6.13;2.92;;;;;;;4.93;100.00;93870.59;5089836;28;20938;-52
2022/04/03 02:48:28;;;;;;;5.07;3.13;;;;;;;4.87;100.00;93871.47;5089219;28;20556;-46
2022/04/03 02:50:55;;;;;;;5.93;3.90;;;;;;;4.83;100.00;93875.50;5091439;28;20101;-48
2022/04/03 02:53:22;;;;;;;7.72;4.05;;;;;;;4.84;100.00;93871.91;5090897;28;20055;-48
2022/04/03 02:55:48;;;;;;;14.00;3.75;;;;;;;4.82;100.00;93879.06;5093621;28;20048;-48
2022/04/03 02:58:15;;;;;;;9.77;4.38;;;;;;;4.74;100.00;93873.22;5089708;28;20040;-49
2022/04/03 03:00:42;;;;;;;7.15;3.90;;;;;;;4.73;100.00;93876.78;5091364;28;20040;-47
2022/04/03 03:03:09;;;;;;;8.85;3.80;;;;;;;4.76;100.00;93875.59;5089873;28;20040;-48
2022/04/03 03:05:36;;;;;;;6.00;3.42;;;;;;;4.72;100.00;93880.38;5091015;28;20399;-47
2022/04/03 03:08:03;;;;;;;9.70;4.07;;;;;;;4.64;100.00;93883.25;5090452;28;20062;-49
2022/04/03 03:10:31;;;;;;;8.52;4.45;;;;;;;4.59;100.00;93888.25;5092025;28;20051;-48
2022/04/03 03:12:58;;;;;;;9.48;5.25;;;;;;;4.52;100.00;93890.13;5090917;28;20047;-47
2022/04/03 03:15:25;;;;;;;11.38;5.80;;;;;;;4.49;100.00;93890.59;5089185;28;20039;-50
2022/04/03 03:17:52;;;;;;;8.63;5.25;;;;;;;4.49;100.00;93890.59;5091373;28;20438;-47
2022/04/03 03:20:21;;;;;;;9.75;6.40;;;;;;;4.49;100.00;93890.59;5091972;28;20059;-47
2022/04/03 03:22:48;;;;;;;9.15;4.75;;;;;;;4.50;100.00;93892.94;5093009;28;20042;-47
2022/04/03 03:25:15;;;;;;;7.88;4.05;;;;;;;4.44;100.00;93900.75;5090076;28;20051;-48
2022/04/03 03:27:42;;;;;;;6.70;3.53;;;;;;;4.40;100.00;93888.28;5089374;28;20113;-46
2022/04/03 03:30:11;;;;;;;10.35;4.47;;;;;;;4.40;100.00;93893.44;5091711;28;20440;-51
2022/04/03 03:32:38;;;;;;;5.30;3.60;;;;;;;4.39;100.00;93896.22;5085751;28;20045;-48
2022/04/03 03:35:06;;;;;;;8.45;4.07;;;;;;;4.45;100.00;93899.72;5085803;28;20132;-52
2022/04/03 03:37:34;;;;;;;5.07;2.95;;;;;;;4.47;100.00;93892.59;5090954;28;20496;-51
2022/04/03 03:40:01;;;;;;;11.20;3.55;;;;;;;4.43;100.00;93896.59;5091439;28;20058;-51
2022/04/03 03:42:28;;;;;;;8.02;3.60;;;;;;;4.46;100.00;93912.41;5090198;28;20055;-51
2022/04/03 03:44:55;;;;;;;5.45;2.05;;;;;;;4.42;100.00;93907.91;5096078;28;20129;-50
2022/04/03 03:47:22;;;;;;;5.13;2.50;;;;;;;4.28;100.00;93900.31;5097099;28;20154;-50
2022/04/03 03:49:49;;;;;;;5.82;3.30;;;;;;;4.28;100.00;93915.78;5097332;28;20566;-52
2022/04/03 03:52:16;;;;;;;5.05;3.53;;;;;;;4.31;100.00;93919.72;5094467;28;20127;-47
2022/04/03 03:54:44;;;;;;;6.35;2.95;;;;;;;4.32;100.00;93922.09;5093846;28;20043;-47
2022/04/03 03:57:13;;;;;;;6.03;2.63;;;;;;;4.29;100.00;93919.94;5095878;28;20075;-52
2022/04/03 03:59:39;;;;;;;6.22;2.72;;;;;;;4.31;100.00;93923.09;5096919;28;20043;-48
2022/04/03 04:02:06;;;;;;;5.28;2.92;;;;;;;4.34;100.00;93930.41;5096406;28;20063;-51
2022/04/03 04:04:34;;;;;;;6.05;3.20;;;;;;;4.32;100.00;93932.41;5094730;28;20040;-47
2022/04/03 04:07:00;;;;;;;9.25;3.53;;;;;;;4.25;100.00;93925.72;5095879;28;20199;-53
2022/04/03 04:09:27;;;;;;;8.90;3.20;;;;;;;4.13;100.00;93934.16;5096339;28;20127;-51
2022/04/03 04:11:54;;;;;;;8.85;3.67;;;;;;;4.08;100.00;93940.97;5093333;28;20047;-50
2022/04/03 04:14:21;;;;;;;7.10;3.42;;;;;;;4.04;100.00;93945.75;5093014;28;20097;-52
2022/04/03 04:16:47;;;;;;;9.07;4.65;;;;;;;4.01;100.00;93951.31;5093690;28;20076;-52
2022/04/03 04:19:15;;;;;;;7.75;3.22;;;;;;;3.93;100.00;93949.81;5093129;28;20094;-49
2022/04/03 04:21:42;;;;;;;6.72;3.65;;;;;;;3.94;100.00;93941.09;5093072;28;20149;-49
2022/04/03 04:24:10;;;;;;;14.18;8.07;;;;;;;3.94;100.00;93951.38;5092593;28;20040;-50
2022/04/03 04:26:37;;;;;;;16.30;9.65;;;;;;;3.90;100.00;93950.22;5092778;28;20044;-50
2022/04/03 04:29:04;;;;;;;12.55;7.30;;;;;;;3.91;100.00;93958.75;5094416;28;20117;-52
2022/04/03 04:31:31;;;;;;;11.95;6.72;;;;;;;3.81;100.00;93946.31;5094609;28;20456;-53
2022/04/03 04:33:58;;;;;;;9.85;5.38;;;;;;;3.90;100.00;93965.66;5093891;28;20047;-49
2022/04/03 04:36:28;;;;;;;7.13;4.07;;;;;;;3.88;100.00;93972.81;5096314;28;20052;-49
2022/04/03 04:38:59;;;;;;;39.20;18.17;;;;;;;3.91;100.00;93982.72;5086070;28;20169;-48
2022/04/03 04:41:26;;;;;;;27.55;13.85;;;;;;;3.90;100.00;93996.59;5085121;28;20051;-53
2022/04/03 04:43:53;;;;;;;23.17;10.70;;;;;;;3.86;100.00;93979.97;5092936;28;20047;-48
2022/04/03 04:46:21;;;;;;;12.27;6.30;;;;;;;3.89;100.00;93995.03;5092454;28;20056;-52
2022/04/03 04:48:49;;;;;;;7.30;3.17;;;;;;;3.83;100.00;93998.41;5096349;28;20101;-48
2022/04/03 04:51:16;;;;;;;5.57;2.95;;;;;;;3.83;100.00;93995.84;5092604;28;20044;-53
2022/04/03 04:53:43;;;;;;;4.82;2.33;;;;;;;3.83;100.00;93999.22;5086490;28;20075;-49
2022/04/03 04:56:12;;;;;;;15.38;7.20;;;;;;;3.88;100.00;94008.91;5091710;28;20120;-50
2022/04/03 04:58:40;;;;;;;6.95;3.85;;;;;;;3.94;100.00;94010.66;5091348;28;20048;-50
2022/04/03 05:01:07;;;;;;;4.85;2.28;;;;;;;4.07;100.00;94002.03;5089238;28;20855;-52
2022/04/03 05:03:34;;;;;;;6.20;3.42;;;;;;;4.19;100.00;94009.84;5091774;28;20547;-48
2022/04/03 05:06:02;;;;;;;7.07;2.33;;;;;;;4.24;100.00;94001.50;5090966;28;20120;-52
2022/04/03 05:08:29;;;;;;;11.98;2.80;;;;;;;4.47;100.00;94011.22;5091996;28;20048;-53
2022/04/03 05:10:57;;;;;;;4.25;2.85;;;;;;;4.57;100.00;94016.66;5090448;28;20055;-51
2022/04/03 05:13:25;;;;;;;5.40;2.33;;;;;;;4.75;100.00;94019.25;5088887;28;20040;-51
2022/04/03 05:15:54;;;;;;;8.90;4.35;;;;;;;4.88;100.00;94022.69;5092155;28;20097;-51
2022/04/03 05:18:22;;;;;;;15.40;5.15;;;;;;;4.94;100.00;94016.69;5091383;28;20044;-50
2022/04/03 05:20:49;;;;;;;7.32;3.00;;;;;;;4.92;99.58;94024.63;5090523;28;20044;-51
2022/04/03 05:23:16;;;;;;;9.73;5.00;;;;;;;5.00;100.00;94030.50;5090872;28;20123;-48
2022/04/03 05:25:43;;;;;;;7.30;3.67;;;;;;;5.05;99.03;94034.03;5069111;28;20044;-54
2022/04/03 05:28:10;;;;;;;13.35;5.82;;;;;;;5.09;99.55;94042.91;5089586;28;20062;-47
2022/04/03 05:30:37;;;;;;;5.82;3.00;;;;;;;5.14;98.95;94043.03;5086457;28;20048;-47
2022/04/03 05:33:04;;;;;;;5.82;3.42;;;;;;;5.18;99.66;94048.56;5089526;28;20056;-52
2022/04/03 05:35:30;;;;;;;6.57;2.80;;;;;;;5.12;98.88;94052.81;5090141;28;20097;-53
2022/04/03 05:37:57;;;;;;;7.78;2.97;;;;;;;5.23;99.42;94046.13;5092169;28;20048;-49
2022/04/03 05:40:24;;;;;;;2.83;2.10;;;;;;;5.24;98.28;94047.72;5089892;28;20101;-48
2022/04/03 05:42:51;;;;;;;6.38;2.53;;;;;;;5.26;98.33;94050.88;5091563;28;20043;-53
2022/04/03 05:45:18;;;;;;;7.55;2.67;;;;;;;5.32;98.38;94049.22;5090258;28;20052;-48
2022/04/03 05:47:44;;;;;;;3.53;1.35;;;;;;;5.37;98.35;94051.94;5089149;28;20093;-48
2022/04/03 05:50:12;;;;;;;1.00;0.70;;;;;;;5.44;97.34;94047.47;5087249;28;20528;-51
2022/04/03 05:52:47;;;;;;;3.33;1.30;;;;;;;5.62;98.65;94043.25;5090078;28;20044;-51
2022/04/03 05:55:16;;;;;;;1.52;1.20;;;;;;;5.76;97.33;94044.66;5085960;28;20044;-52
2022/04/03 05:57:45;;;;;;;3.65;1.33;;;;;;;5.84;96.14;94057.28;5088153;28;20046;-48
2022/04/03 06:00:13;;;;;;;4.53;1.55;;;;;;;5.87;95.84;94061.22;5086610;28;20043;-50
2022/04/03 06:02:47;;;;;;;8.15;1.83;;;;;;;5.89;92.90;94054.84;5090330;28;20027;-51
2022/04/03 06:05:14;;;;;;;3.00;1.10;;;;;;;5.93;92.56;94058.53;5090027;28;20040;-50
2022/04/03 06:07:41;;;;;;;4.50;2.67;;;;;;;6.01;93.91;94059.28;5089600;28;20505;-49
2022/04/03 06:10:09;;;;;;;4.57;0.63;;;;;;;6.19;92.07;94069.53;5089466;28;20064;-52
2022/04/03 06:12:36;;;;;;;0.95;0.60;;;;;;;6.38;92.62;94072.06;5089281;28;20059;-50
2022/04/03 06:15:03;;;;;;;1.50;0.82;;;;;;;6.44;93.10;94079.69;5089230;28;20036;-50
2022/04/03 06:17:30;;;;;;;2.97;1.10;;;;;;;6.50;92.67;94085.81;5086744;28;20113;-49
2022/04/03 06:19:57;;;;;;;2.75;1.33;;;;;;;6.49;91.37;94079.03;5088468;28;20043;-47
2022/04/03 06:22:24;;;;;;;5.38;1.55;;;;;;;6.55;90.53;94083.31;5088216;28;20044;-52
2022/04/03 06:24:50;;;;;;;2.15;0.70;;;;;;;6.54;88.15;94091.31;5089009;28;20044;-46
2022/04/03 06:27:18;;;;;;;4.38;1.77;;;;;;;6.59;87.77;94079.28;5089210;28;20093;-49
2022/04/03 06:29:44;;;;;;;3.55;1.90;;;;;;;6.67;89.08;94098.84;5088689;28;20044;-53
2022/04/03 06:32:11;;;;;;;3.78;1.70;;;;;;;6.74;87.39;94088.41;5087913;28;20056;-51
2022/04/03 06:34:38;;;;;;;1.60;0.82;;;;;;;6.80;87.34;94092.66;5086138;28;20035;-49
2022/04/03 06:37:05;;;;;;;1.35;0.85;;;;;;;6.84;85.51;94096.38;5087712;28;20501;-49
2022/04/03 06:39:33;;;;;;;2.28;0.95;;;;;;;6.88;86.09;94102.69;5087198;28;20044;-51
2022/04/03 06:42:00;;;;;;;7.20;1.30;;;;;;;6.98;85.03;94108.09;5088207;28;20043;-52
2022/04/03 06:44:27;;;;;;;4.88;0.85;;;;;;;7.14;85.60;94100.66;5068490;28;20052;-50
2022/04/03 06:46:54;;;;;;;3.08;1.00;;;;;;;7.28;82.45;94107.94;5087974;28;20109;-54
2022/04/03 06:49:21;;;;;;;1.88;1.15;;;;;;;7.40;82.49;94105.34;5087710;28;20047;-49
2022/04/03 06:51:48;;;;;;;4.03;0.68;;;;;;;7.59;81.31;94105.19;5087851;28;20462;-51
2022/04/03 06:54:15;;;;;;;2.88;1.20;;;;;;;7.68;78.67;94111.59;5083889;28;20047;-50
2022/04/03 06:56:41;;;;;;;3.85;1.20;;;;;;;7.59;78.85;94107.78;5085744;28;20069;-49
2022/04/03 06:59:08;;;;;;;2.75;1.17;;;;;;;7.60;78.64;94119.75;5087755;28;20443;-50
2022/04/03 07:01:35;;;;;;;3.88;1.73;;;;;;;7.65;81.72;94117.22;5088704;28;20066;-50
2022/04/03 07:04:02;;;;;;;2.75;0.40;;;;;;;7.51;75.15;94128.84;5088218;28;20531;-47
2022/04/03 07:06:29;;;;;;;3.30;1.20;;;;;;;7.37;74.86;94121.34;5088253;28;20046;-49
2022/04/03 07:08:55;;;;;;;11.05;0.85;;;;;;;7.28;74.61;94135.66;5087806;28;20043;-49
2022/04/03 07:11:22;;;;;;;2.00;0.82;;;;;;;7.34;76.04;94137.34;5087954;28;20056;-49
2022/04/03 07:13:49;;;;;;;4.28;0.60;;;;;;;7.23;74.58;94151.09;5088796;28;20047;-51
2022/04/03 07:16:16;;;;;;;10.98;4.18;;;;;;;7.26;77.81;94140.28;5087548;28;20562;-51
2022/04/03 07:18:43;;;;;;;2.58;1.00;;;;;;;7.29;77.44;94134.63;5087668;28;20092;-46
2022/04/03 07:21:10;;;;;;;3.60;1.15;;;;;;;7.41;76.25;94157.94;5093016;28;20044;-47
2022/04/03 07:23:37;;;;;;;5.10;0.75;;;;;;;7.32;76.46;94149.72;5093000;28;20043;-45
2022/04/03 07:26:05;;;;;;;1.95;0.63;;;;;;;7.30;73.68;94162.13;5093314;28;20043;-48
2022/04/03 07:28:32;;;;;;;1.73;0.73;;;;;;;7.24;74.18;94157.88;5087977;28;20424;-46
2022/04/03 07:30:59;;;;;;;1.88;0.82;;;;;;;7.26;75.22;94161.00;5092012;28;20100;-47
2022/04/03 07:33:26;;;;;;;2.53;1.80;;;;;;;7.49;76.12;94159.41;5089493;28;20117;-49
2022/04/03 07:35:54;;;;;;;3.25;1.05;;;;;;;7.74;76.51;94166.91;5091290;28;20048;-48
2022/04/03 07:38:21;;;;;;;1.98;0.82;;;;;;;7.63;73.88;94161.53;5092621;28;20063;-51
2022/04/03 07:40:48;;;;;;;0.98;0.63;;;;;;;7.58;77.33;94165.81;5091025;28;20032;-44
2022/04/03 07:43:22;;;;;;;1.70;0.80;;;;;;;7.54;77.75;94172.47;5089950;28;20047;-49
2022/04/03 07:45:49;;;;;;;1.75;1.08;;;;;;;7.45;78.07;94175.41;5093412;28;20047;-45
2022/04/03 07:48:16;;;;;;;1.27;0.47;;;;;;;7.53;75.57;94181.25;5089862;28;20046;-46
2022/04/03 07:50:43;;;;;;;2.13;0.93;;;;;;;7.64;77.30;94177.88;5092565;28;20060;-47
2022/04/03 07:53:10;;;;;;;2.65;1.05;;;;;;;7.55;75.67;94185.19;5093628;28;20088;-50
2022/04/03 07:55:37;;;;;;;3.70;1.25;;;;;;;7.40;76.77;94167.53;5090171;28;20084;-47
2022/04/03 07:58:06;;;;;;;5.70;1.58;;;;;;;7.53;79.34;94176.88;5091845;28;20042;-47
2022/04/03 08:00:33;;;;;;;1.63;1.02;;;;;;;7.59;78.47;94185.53;5090322;28;20414;-47
2022/04/03 08:03:00;;;;;;;6.13;2.40;;;;;;;7.69;81.30;94179.75;5090543;28;20039;-46
2022/04/03 08:05:27;;;;;;;3.28;1.65;;;;;;;7.83;81.26;94202.63;5091681;28;20078;-50
2022/04/03 08:07:55;;;;;;;3.75;1.67;;;;;;;7.73;76.95;94197.22;5092926;28;20421;-50
2022/04/03 08:10:22;;;;;;;3.40;1.30;;;;;;;7.44;77.04;94215.28;5090284;28;20421;-47
2022/04/03 08:12:50;;;;;;;4.20;2.03;;;;;;;7.33;79.09;94200.53;5091007;28;20070;-49
2022/04/03 08:15:19;;;;;;;6.43;2.38;;;;;;;7.19;78.81;94212.13;5092646;28;20062;-46
2022/04/03 08:17:46;;;;;;;9.27;4.85;;;;;;;7.10;80.97;94214.25;5091170;28;20116;-49
2022/04/03 08:20:16;;;;;;;12.73;4.65;;;;;;;6.96;79.79;94213.66;5092495;28;20136;-46
2022/04/03 08:22:44;;;;;;;3.75;1.95;;;;;;;6.94;79.65;94200.16;5090706;28;20031;-49
2022/04/03 08:25:13;;;;;;;1.98;1.05;;;;;;;7.05;78.40;94212.34;5090754;28;20047;-46
2022/04/03 08:27:43;;;;;;;1.67;0.63;;;;;;;7.30;79.83;94213.16;5091014;28;20459;-45
2022/04/03 08:30:13;;;;;;;2.30;1.17;;;;;;;7.49;74.92;94216.41;5088971;28;20110;-50
2022/04/03 08:32:41;;;;;;;1.38;0.90;;;;;;;7.57;72.78;94213.47;5090316;28;20062;-50
2022/04/03 08:35:09;;;;;;;1.40;0.75;;;;;;;7.78;73.87;94210.28;5092381;28;20056;-46
2022/04/03 08:37:36;;;;;;;4.25;0.90;;;;;;;8.01;71.42;94198.28;5091441;28;20044;-49
2022/04/03 08:40:04;;;;;;;1.27;0.55;;;;;;;8.11;70.30;94214.03;5092448;28;20452;-48
2022/04/03 08:42:33;;;;;;;1.13;0.75;;;;;;;8.38;70.13;94200.53;5090127;28;20040;-47
2022/04/03 08:45:00;;;;;;;3.50;0.85;;;;;;;8.68;71.00;94207.31;5091718;28;20429;-49
2022/04/03 08:47:29;;;;;;;2.22;1.38;;;;;;;8.49;69.16;94210.09;5090785;28;20059;-53
2022/04/03 08:50:00;;;;;;;0.75;0.50;;;;;;;8.17;75.53;94222.72;5091354;28;20493;-48
2022/04/03 08:52:27;;;;;;;1.35;0.50;;;;;;;7.05;83.08;94235.63;5090046;28;20056;-51
2022/04/03 08:54:55;;;;;;;0.98;0.47;;;;;;;5.92;81.72;94240.50;5091553;28;20068;-47
2022/04/03 08:57:23;;;;;;;2.60;0.85;;;;;;;5.22;86.50;94227.06;5091042;28;20476;-52
2022/04/03 08:59:51;;;;;;;6.38;1.13;;;;;;;5.11;90.05;94244.84;5092006;28;20420;-47
2022/04/03 09:02:18;;;;;;;21.55;6.18;;;;;;;5.12;93.77;94236.06;5091190;28;20606;-48
2022/04/03 09:04:45;;;;;;;41.10;9.85;;;;;;;5.20;94.96;94231.66;5091554;28;20036;-48
2022/04/03 09:07:19;;;;;;;37.80;12.15;;;;;;;5.50;98.00;94229.97;5092986;28;20067;-52
2022/04/03 09:09:56;;;;;;;15.43;5.43;;;;;;;6.12;98.90;94234.31;5090506;28;20036;-51
2022/04/03 09:12:23;;;;;;;3.55;1.85;;;;;;;6.67;95.97;94236.78;5088849;28;20551;-50
2022/04/03 09:14:55;;;;;;;3.85;1.23;;;;;;;7.05;94.50;94253.75;5091451;28;20450;-52
2022/04/03 09:17:42;;;;;;;1.02;0.80;;;;;;;7.06;90.50;94247.59;5088789;28;20052;-53
2022/04/03 09:20:15;;;;;;;2.67;0.60;;;;;;;7.22;88.65;94258.28;5066908;28;20066;-51
2022/04/03 09:22:44;;;;;;;2.00;1.02;;;;;;;7.34;84.07;94260.91;5089891;28;20051;-49
2022/04/03 09:25:13;;;;;;;1.23;0.50;;;;;;;7.44;80.12;94253.38;5092249;28;20051;-50
2022/04/03 09:27:52;;;;;;;2.10;1.05;;;;;;;7.83;87.55;94249.28;5089154;28;20055;-52
2022/04/03 09:30:21;;;;;;;4.03;1.02;;;;;;;7.94;85.60;94239.13;5089824;28;20040;-53
2022/04/03 09:32:47;;;;;;;2.95;1.23;;;;;;;7.96;79.20;94250.03;5090053;28;20063;-52
2022/04/03 09:35:16;;;;;;;4.03;1.85;;;;;;;7.92;77.30;94246.34;5091115;28;20036;-54
2022/04/03 09:38:11;;;;;;;2.83;1.50;;;;;;;7.85;78.07;94257.63;5090503;28;20056;-53
2022/04/03 09:40:47;;;;;;;2.70;0.93;;;;;;;7.74;77.17;94268.00;5078841;28;20047;-54
2022/04/03 09:43:46;;;;;;;9.98;4.82;;;;;;;7.72;75.80;94260.44;5089031;28;20051;-55
2022/04/03 09:46:13;;;;;;;5.75;2.30;;;;;;;7.75;76.58;94267.78;5074533;28;20071;-51
2022/04/03 09:48:44;;;;;;;2.03;1.00;;;;;;;7.82;77.92;94268.44;5087468;28;20055;-55
2022/04/03 09:51:13;;;;;;;2.78;1.63;;;;;;;7.85;79.17;94268.00;5090322;28;20561;-52
2022/04/03 09:53:42;;;;;;;5.35;1.55;;;;;;;7.82;77.10;94278.81;5089676;28;20060;-50
2022/04/03 09:56:10;;;;;;;2.38;1.15;;;;;;;7.74;76.38;94291.31;5088031;28;20078;-52
2022/04/03 09:58:53;;;;;;;2.28;1.08;;;;;;;7.51;77.73;94305.06;5089272;28;20742;-52
2022/04/03 10:01:26;;;;;;;1.70;0.60;;;;;;;7.14;72.38;94297.47;5090853;28;20536;-52
2022/04/03 10:03:55;;;;;;;0.80;0.50;;;;;;;6.94;75.92;94288.19;5089628;28;20085;-53
2022/04/03 10:06:23;;;;;;;2.72;1.00;;;;;;;7.01;75.97;94288.88;5088187;28;20081;-54
2022/04/03 10:08:51;;;;;;;1.02;0.50;;;;;;;7.20;75.52;94279.25;5087875;28;20052;-54
2022/04/03 10:11:19;;;;;;;4.18;1.15;;;;;;;7.46;73.88;94290.97;5091713;28;20039;-51
2022/04/03 10:13:46;;;;;;;3.75;1.58;;;;;;;7.55;71.71;94282.88;5089785;28;20517;-50
2022/04/03 10:16:14;;;;;;;1.63;0.85;;;;;;;7.76;74.02;94284.91;5088253;28;20467;-51
2022/04/03 10:18:46;;;;;;;1.35;0.50;;;;;;;7.93;70.44;94286.81;5088271;28;20066;-50
2022/04/03 10:21:29;;;;;;;4.32;0.98;;;;;;;8.10;71.65;94279.91;5087338;28;20047;-50
2022/04/03 10:24:26;;;;;;;1.80;1.10;;;;;;;8.37;71.46;94284.56;5087779;28;20137;-50
2022/04/03 10:27:02;;;;;;;0.85;0.60;;;;;;;8.50;68.91;94286.97;5069878;28;20062;-48
2022/04/03 10:29:36;;;;;;;4.15;2.05;;;;;;;8.50;70.43;94286.97;5088608;28;20060;-47
2022/04/03 10:32:04;;;;;;;1.40;0.88;;;;;;;8.42;66.96;94282.91;5090135;28;20062;-52
2022/04/03 10:34:43;;;;;;;2.78;1.38;;;;;;;8.60;69.94;94289.72;5085415;28;20054;-48
2022/04/03 10:37:35;;;;;;;1.40;0.90;;;;;;;9.07;65.72;94282.75;5069227;28;20047;-51
2022/04/03 10:40:11;;;;;;;9.35;4.68;;;;;;;9.51;65.82;94293.34;5055628;28;20056;-48
2022/04/03 10:42:52;;;;;;;10.90;4.40;;;;;;;9.55;62.02;94294.44;5086530;28;20058;-47
2022/04/03 10:45:24;;;;;;;6.30;3.53;;;;;;;9.59;62.08;94292.94;5064971;28;20600;-49
2022/04/03 10:47:51;;;;;;;2.60;1.30;;;;;;;9.46;60.89;94296.63;5087939;28;20051;-47
2022/04/03 10:50:22;;;;;;;5.00;2.20;;;;;;;9.66;61.56;94280.56;5087838;28;20055;-50
2022/04/03 10:52:48;;;;;;;16.20;4.47;;;;;;;10.03;61.77;94290.44;5070256;28;20456;-48
2022/04/03 10:55:25;;;;;;;2.40;1.38;;;;;;;10.07;55.98;94299.34;5084713;28;20109;-47
2022/04/03 10:58:06;;;;;;;2.78;0.65;;;;;;;9.99;55.19;94296.34;5090452;28;20055;-52
2022/04/03 11:00:38;;;;;;;1.17;0.80;;;;;;;9.84;55.74;94296.94;5084523;28;20056;-50
2022/04/03 11:03:14;;;;;;;4.78;2.15;;;;;;;10.37;54.69;94310.41;5088189;28;20048;-47
2022/04/03 11:05:48;;;;;;;2.45;0.80;;;;;;;10.81;56.03;94285.13;5089878;28;20062;-46
2022/04/03 11:08:17;;;;;;;1.83;1.15;;;;;;;11.06;55.22;94294.22;5089755;28;20085;-45
2022/04/03 11:10:52;;;;;;;5.05;2.63;;;;;;;11.22;55.59;94282.91;5088665;28;20048;-47
2022/04/03 11:13:43;;;;;;;15.57;3.92;;;;;;;10.94;53.02;94290.97;5087292;28;20052;-49
2022/04/03 11:16:13;;;;;;;7.30;2.47;;;;;;;10.59;55.42;94292.97;5086331;28;20047;-51
2022/04/03 11:18:47;;;;;;;6.57;3.13;;;;;;;10.56;57.58;94287.47;5087310;28;20048;-51
2022/04/03 11:21:16;;;;;;;4.72;2.90;;;;;;;10.64;58.51;94284.41;5085964;28;20068;-46
2022/04/03 11:23:50;;;;;;;2.08;1.33;;;;;;;10.47;53.68;94300.88;5087800;28;20294;-47
2022/04/03 11:26:17;;;;;;;6.10;3.28;;;;;;;10.27;53.88;94287.63;5088376;28;20041;-44
2022/04/03 11:28:46;;;;;;;1.70;0.93;;;;;;;10.28;53.76;94287.38;5086221;28;20044;-47
2022/04/03 11:31:14;;;;;;;3.72;2.10;;;;;;;10.40;54.55;94289.88;5087834;28;20959;-49
2022/04/03 11:33:42;;;;;;;7.05;2.60;;;;;;;10.48;57.22;94302.47;5087757;28;20054;-48
2022/04/03 11:36:11;;;;;;;3.17;2.00;;;;;;;10.89;54.02;94302.94;5084691;28;20059;-51
2022/04/03 11:38:43;;;;;;;3.17;2.38;;;;;;;10.74;52.38;94297.53;5086991;28;20040;-45
2022/04/03 11:41:15;;;;;;;4.80;2.80;;;;;;;10.60;54.46;94293.75;5086729;28;20050;-50
2022/04/03 11:43:43;;;;;;;1.92;1.23;;;;;;;10.21;52.97;94317.19;5085863;28;20597;-48